DXXX/LFW METAR and TAF weather

Enter ICAO airport designator
Station Type Date Time Source
DXXX METAR 2021/07/26 12:00 UTC NOAA

DXXX 261200Z 22013KT 190V260 9999 SCT012 28/22 Q1015 NOSIG


Station Type Date Time Source
DXXX Decoded METAR 2021/07/26 12:00 UTC NOAA

Lome, Togo (DXXX) 06-10N 001-15E 25M
Jul 26, 2021 - 08:00 AM EDT / 2021.07.26 1200 UTC
Wind: from the SW (220 degrees) at 15 MPH (13 KT) (direction variable):0
Visibility: greater than 7 mile(s):0
Sky conditions: partly cloudy
Temperature: 82 F (28 C)
Dew Point: 71 F (22 C)
Relative Humidity: 69%
Pressure (altimeter): 29.97 in. Hg (1015 hPa)
ob: DXXX 261200Z 22013KT 190V260 9999 SCT012 28/22 Q1015 NOSIG
cycle: 12

Station Type Date Time Source
DXXX TAF 2021/07/26 12:21 UTC NOAA

TAF DXXX 261100Z 2612/2718 22012KT 9999 FEW012

Example: see airport list